Normetal, Canada
Current Conditions -  °F | °C
As of 4:00 AM on Sunday 26 Oct 2014 (Local Time) from CYUY Reporting Station
Broken Clouds Broken Clouds  
Wind Chill: 29°   Ceiling: 700
Heat Index: 36°   Visibility: 15mi
Dew Point: 36°   Wind: 8mph
Humidity: 100%   Direction: 280°W
Pressure: 29.45"   Gusts: NA
Location:  49°N, 79.37°W
Report Text: CYUY 260800Z 28007KT 15SM BKN007 02/02 A2945 RMK SF7 VIS E 5 CIG RAG SLP982
Loading
Personal Weather Stations






























Interactive Weather Map
Tropical Storm Tracking
New forecast layout! Learn more

10-Day Weather Forecast

Advertisements
Track Severe Weather on mobile